Time;durP1;ratioP1;P1;durP2;ratioP2;P2;SDS_P1;SDS_P2;PMS_P1;PMS_P2;Temp;Humidity;BMP_temperature;BMP_pressure;BME280_temperature;BME280_humidity;BME280_pressure;Samples;Min_cycle;Max_cycle;Signal;HPM_P1;HPM_P2
2022/06/22 00:00:18;;;;;;;21.23;10.90;;;;;;;12.32;100.00;101218.25;5092360;28;20067;-75
2022/06/22 00:02:44;;;;;;;18.00;10.32;;;;;;;12.26;100.00;101227.97;5076559;28;20072;-75
2022/06/22 00:05:17;;;;;;;17.63;9.40;;;;;;;12.19;100.00;101231.75;5073364;28;20020;-74
2022/06/22 00:07:51;;;;;;;23.25;12.75;;;;;;;12.13;100.00;101230.72;5091423;28;20483;-74
2022/06/22 00:10:22;;;;;;;29.88;15.68;;;;;;;12.10;100.00;101228.47;5094416;28;20044;-75
2022/06/22 00:12:52;;;;;;;30.35;13.88;;;;;;;12.10;100.00;101223.94;5073092;28;20395;-75
2022/06/22 00:15:41;;;;;;;26.27;14.57;;;;;;;12.15;100.00;101220.63;5094554;28;20391;-74
2022/06/22 00:18:39;;;;;;;18.52;10.23;;;;;;;12.16;100.00;101213.41;5091330;28;20028;-74
2022/06/22 00:21:35;;;;;;;19.98;10.98;;;;;;;12.12;100.00;101206.81;5076157;28;20044;-74
2022/06/22 00:24:22;;;;;;;20.25;12.30;;;;;;;12.06;100.00;101203.97;5081119;28;20052;-73
2022/06/22 00:30:10;;;;;;;26.55;14.05;;;;;;;12.07;100.00;101194.88;5095547;28;20514;-74
2022/06/22 00:36:19;;;;;;;30.05;16.83;;;;;;;11.97;100.00;101218.66;5095027;28;20047;-74
2022/06/22 00:42:15;;;;;;;34.10;18.67;;;;;;;12.15;100.00;101199.19;5094963;28;20442;-74
2022/06/22 00:48:12;;;;;;;32.55;16.88;;;;;;;12.09;100.00;101197.34;5094507;28;20039;-75
2022/06/22 00:50:41;;;;;;;36.05;17.67;;;;;;;12.05;100.00;101194.28;5079656;28;20079;-74
2022/06/22 00:53:20;;;;;;;38.90;18.27;;;;;;;12.04;100.00;101214.06;5076082;28;20012;-74
2022/06/22 00:55:53;;;;;;;34.45;17.77;;;;;;;12.06;100.00;101224.56;5094372;28;20036;-74
2022/06/22 00:58:52;;;;;;;35.67;17.70;;;;;;;12.08;100.00;101199.19;5086170;28;20047;-74
2022/06/22 01:04:49;;;;;;;30.10;17.52;;;;;;;12.09;100.00;101198.16;5094831;28;20106;-74
2022/06/22 01:07:30;;;;;;;32.08;17.48;;;;;;;12.06;100.00;101195.09;5094616;28;20497;-74
2022/06/22 01:13:23;;;;;;;42.28;20.63;;;;;;;11.99;100.00;101183.59;5094502;28;20108;-74
2022/06/22 01:16:04;;;;;;;33.47;16.38;;;;;;;11.95;100.00;101191.25;5096856;28;20048;-74
2022/06/22 01:18:37;;;;;;;36.10;15.63;;;;;;;11.85;100.00;101204.25;5093873;28;20032;-73
2022/06/22 01:21:09;;;;;;;35.83;18.35;;;;;;;11.86;100.00;101219.34;5095682;28;20500;-74
2022/06/22 01:24:21;;;;;;;42.72;17.70;;;;;;;11.87;100.00;101218.31;5076211;28;20024;-73
2022/06/22 01:27:21;;;;;;;43.17;17.98;;;;;;;11.89;100.00;101234.16;4975887;28;20133;-74
2022/06/22 01:29:56;;;;;;;42.20;19.08;;;;;;;11.92;100.00;101213.13;4991119;28;20415;-74
2022/06/22 01:32:26;;;;;;;37.03;17.67;;;;;;;11.89;100.00;101215.41;5074621;28;20055;-74
2022/06/22 01:34:56;;;;;;;41.53;19.65;;;;;;;11.88;100.00;101214.59;5096746;28;20044;-74
2022/06/22 01:40:57;;;;;;;40.25;18.55;;;;;;;11.78;100.00;101193.59;5093849;28;20567;-74
2022/06/22 01:43:46;;;;;;;45.65;18.98;;;;;;;11.70;100.00;101180.41;5093698;28;20055;-74
2022/06/22 01:46:49;;;;;;;42.38;19.58;;;;;;;11.67;100.00;101175.47;5078571;28;20036;-74
2022/06/22 01:49:41;;;;;;;47.30;20.35;;;;;;;11.64;100.00;101170.56;5093562;28;20055;-74
2022/06/22 01:55:36;;;;;;;49.15;19.55;;;;;;;11.61;100.00;101188.91;5093930;28;20425;-74
2022/06/22 01:58:22;;;;;;;46.88;21.40;;;;;;;11.61;100.00;101195.09;5096404;28;20123;-74
2022/06/22 02:00:54;;;;;;;54.55;23.38;;;;;;;11.71;100.00;101192.78;5075149;28;20497;-74
2022/06/22 02:03:39;;;;;;;48.83;22.33;;;;;;;11.72;100.00;101167.63;5093186;28;20028;-74
2022/06/22 02:12:27;;;;;;;55.00;21.55;;;;;;;11.83;100.00;101182.22;5093261;28;20055;-74
2022/06/22 02:14:58;;;;;;;54.15;22.27;;;;;;;11.76;100.00;101184.09;5075111;28;20085;-75
2022/06/22 02:17:29;;;;;;;59.72;23.92;;;;;;;11.79;100.00;101187.19;5078225;28;20395;-74
2022/06/22 02:20:19;;;;;;;59.10;22.65;;;;;;;11.79;100.00;101184.50;5093053;28;20020;-74
2022/06/22 02:22:46;;;;;;;65.25;24.90;;;;;;;11.72;100.00;101174.84;5078022;28;20085;-74
2022/06/22 02:25:14;;;;;;;59.35;23.92;;;;;;;11.71;100.00;101184.72;5093082;28;20464;-74
2022/06/22 02:31:01;;;;;;;62.35;24.00;;;;;;;11.70;100.00;101179.59;5093119;28;20047;-74
2022/06/22 02:33:28;;;;;;;58.92;25.83;;;;;;;11.74;100.00;101167.41;5074754;28;20032;-75
2022/06/22 02:35:54;;;;;;;61.10;24.50;;;;;;;11.79;100.00;101148.84;5096027;28;20511;-75
2022/06/22 02:38:21;;;;;;;54.35;23.30;;;;;;;11.74;100.00;101144.13;5092787;28;20028;-74
2022/06/22 02:53:18;;;;;;;50.55;21.67;;;;;;;11.79;100.00;101162.25;5092743;28;20051;-75
2022/06/22 02:55:44;;;;;;;51.38;23.35;;;;;;;11.76;100.00;101158.13;5074370;28;20024;-74
2022/06/22 03:01:34;;;;;;;56.83;22.40;;;;;;;11.53;100.00;101162.34;5092667;28;20390;-73
2022/06/22 03:07:22;;;;;;;56.38;23.85;;;;;;;11.41;100.00;101171.03;5092530;28;20066;-73
2022/06/22 03:13:12;;;;;;;59.90;23.38;;;;;;;11.52;100.00;101177.59;5092256;28;20054;-73
2022/06/22 03:19:04;;;;;;;58.28;23.55;;;;;;;11.58;100.00;101175.94;5092370;28;20092;-75
2022/06/22 03:21:30;;;;;;;56.00;24.92;;;;;;;11.55;100.00;101168.31;5092031;28;20064;-74
2022/06/22 03:27:24;;;;;;;52.85;21.38;;;;;;;11.29;100.00;101153.19;5092677;28;20070;-74
2022/06/22 03:29:55;;;;;;;58.13;22.33;;;;;;;11.19;100.00;101145.56;5095029;28;20107;-75
2022/06/22 03:35:49;;;;;;;75.93;22.15;;;;;;;11.15;100.00;101157.75;5092157;28;20415;-74
2022/06/22 03:38:23;;;;;;;58.25;23.15;;;;;;;11.15;100.00;101163.91;5091885;28;20024;-74
2022/06/22 03:40:52;;;;;;;56.78;23.58;;;;;;;11.11;100.00;101151.97;5095330;28;20059;-75
2022/06/22 03:43:34;;;;;;;59.72;24.70;;;;;;;11.14;100.00;101161.44;5092467;28;20024;-75
2022/06/22 03:46:02;;;;;;;56.28;23.83;;;;;;;11.18;100.00;101151.97;5094940;28;20036;-75
2022/06/22 03:48:33;;;;;;;59.10;23.80;;;;;;;11.20;100.00;101141.03;5097770;28;20478;-75
2022/06/22 03:51:19;;;;;;;61.00;25.63;;;;;;;11.23;100.00;101138.75;5093283;28;20078;-75
2022/06/22 03:53:50;;;;;;;45.38;22.08;;;;;;;11.27;100.00;101145.34;5097941;28;20059;-75
2022/06/22 03:56:19;;;;;;;51.50;22.25;;;;;;;11.35;100.00;101137.09;5095150;28;20388;-75
2022/06/22 03:58:48;;;;;;;60.47;25.20;;;;;;;11.49;100.00;101138.66;5095689;28;20096;-75
2022/06/22 04:01:14;;;;;;;58.92;25.50;;;;;;;11.54;100.00;101135.34;5075295;28;20534;-74
2022/06/22 04:03:40;;;;;;;60.78;26.13;;;;;;;11.66;100.00;101141.69;5077842;28;20043;-74
2022/06/22 04:06:06;;;;;;;53.72;22.98;;;;;;;11.65;100.00;101133.88;5098222;28;20107;-74
2022/06/22 04:08:37;;;;;;;72.00;24.98;;;;;;;11.79;100.00;101140.81;5095342;28;20107;-74
2022/06/22 04:11:27;;;;;;;55.75;26.98;;;;;;;11.79;100.00;101124.75;5098288;28;20079;-75
2022/06/22 04:14:06;;;;;;;62.55;22.30;;;;;;;11.91;100.00;101139.13;5095151;28;20046;-74
2022/06/22 04:16:38;;;;;;;46.58;23.77;;;;;;;12.02;100.00;101140.28;5095200;28;20032;-74
2022/06/22 04:19:22;;;;;;;53.90;23.23;;;;;;;12.11;100.00;101144.34;5070577;28;20046;-74
2022/06/22 04:21:55;;;;;;;53.95;22.67;;;;;;;12.22;100.00;101134.78;5094932;28;20035;-74
2022/06/22 04:24:47;;;;;;;49.63;22.30;;;;;;;12.43;100.00;101144.31;5097986;28;20499;-74
2022/06/22 04:27:18;;;;;;;57.80;22.98;;;;;;;12.58;100.00;101145.63;5049871;28;20046;-74
2022/06/22 04:30:01;;;;;;;51.20;23.17;;;;;;;12.72;100.00;101154.38;5079907;28;20040;-74
2022/06/22 04:32:33;;;;;;;51.50;23.83;;;;;;;12.82;100.00;101160.06;5076566;28;20028;-74
2022/06/22 04:38:08;;;;;;;42.75;20.70;;;;;;;13.00;100.00;101178.06;5094764;28;19923;-74
2022/06/22 04:44:08;;;;;;;42.38;20.83;;;;;;;13.46;100.00;101168.72;5095107;28;20506;-74
2022/06/22 04:46:36;;;;;;;39.75;20.05;;;;;;;13.63;100.00;101169.75;5094754;28;20036;-74
2022/06/22 04:52:42;;;;;;;40.95;20.20;;;;;;;14.13;100.00;101169.47;5094420;28;20082;-75
2022/06/22 04:55:14;;;;;;;36.20;19.52;;;;;;;14.31;100.00;101161.34;5097940;28;20094;-75
2022/06/22 04:57:42;;;;;;;31.27;20.20;;;;;;;14.35;100.00;101167.09;5095200;28;20153;-75
2022/06/22 05:03:30;;;;;;;26.77;16.42;;;;;;;14.67;100.00;101176.53;5094989;28;20160;-75
2022/06/22 05:05:59;;;;;;;28.00;16.85;;;;;;;14.97;100.00;101183.69;5097786;28;20040;-74
2022/06/22 05:08:29;;;;;;;29.17;16.30;;;;;;;15.24;100.00;101182.13;5095002;28;20480;-74
2022/06/22 05:10:59;;;;;;;25.80;17.10;;;;;;;15.48;100.00;101193.69;5076390;28;20024;-75
2022/06/22 05:13:33;;;;;;;21.60;15.45;;;;;;;15.71;100.00;101188.28;5097324;28;20048;-74
2022/06/22 05:19:24;;;;;;;22.40;14.57;;;;;;;16.63;100.00;101187.22;5094499;28;20070;-74
2022/06/22 05:21:49;;;;;;;20.98;13.10;;;;;;;17.22;99.97;101201.09;5094232;28;20119;-75
2022/06/22 05:24:23;;;;;;;18.55;13.00;;;;;;;17.71;98.41;101198.53;5079875;28;20114;-75
2022/06/22 05:26:50;;;;;;;15.77;12.52;;;;;;;18.23;94.96;101194.25;5076684;28;20055;-75
2022/06/22 05:29:31;;;;;;;19.55;12.45;;;;;;;18.74;95.02;101205.53;5097225;28;20124;-75
2022/06/22 05:35:29;;;;;;;19.30;11.73;;;;;;;19.53;85.19;101203.84;5095047;28;20153;-75
2022/06/22 05:41:21;;;;;;;15.35;10.70;;;;;;;20.40;80.52;101201.16;5095249;28;20027;-74
2022/06/22 05:47:30;;;;;;;21.08;11.02;;;;;;;20.91;81.75;101203.84;5097188;28;20062;-75
2022/06/22 05:53:36;;;;;;;13.07;11.05;;;;;;;21.70;77.42;101202.31;5093884;28;20399;-75
2022/06/22 05:56:12;;;;;;;15.63;11.02;;;;;;;22.09;70.13;101210.56;5075314;28;20483;-74
2022/06/22 05:58:44;;;;;;;14.02;10.32;;;;;;;22.66;70.25;101217.22;5096617;28;20050;-75
2022/06/22 06:04:55;;;;;;;15.27;10.68;;;;;;;23.33;66.08;101223.69;5093825;28;19927;-75
2022/06/22 06:10:43;;;;;;;12.95;10.13;;;;;;;24.06;59.54;101233.47;5093859;28;20055;-75
2022/06/22 06:16:45;;;;;;;13.93;10.40;;;;;;;24.62;60.30;101232.66;5096533;28;20401;-71
2022/06/22 06:22:36;;;;;;;13.82;10.25;;;;;;;25.78;54.06;101240.66;5093403;28;20069;-73
2022/06/22 06:28:02;;;;;;;13.15;10.55;;;;;;;26.73;51.26;101246.16;5096246;28;20476;-74
2022/06/22 06:33:50;;;;;;;15.27;10.35;;;;;;;27.78;46.76;101238.13;5093028;28;20095;-73
2022/06/22 06:39:42;;;;;;;15.43;10.07;;;;;;;28.36;44.80;101236.94;5093137;28;20098;-74
2022/06/22 06:42:22;;;;;;;12.93;10.50;;;;;;;28.63;46.05;101247.59;5074737;28;20059;-73
2022/06/22 06:44:50;;;;;;;15.07;10.00;;;;;;;28.91;44.13;101244.47;5092691;28;20039;-73
2022/06/22 06:47:22;;;;;;;17.98;11.25;;;;;;;28.86;42.97;101239.13;5095710;28;20174;-73
2022/06/22 06:49:55;;;;;;;;;;;;;;;29.15;43.77;101225.44;5093147;28;20034;-74
2022/06/22 06:52:47;;;;;;;16.58;11.20;;;;;;;28.39;44.62;101214.28;5095544;28;19916;-74
2022/06/22 06:55:13;;;;;;;13.85;10.70;;;;;;;28.24;43.96;101218.31;5074394;28;20034;-73
2022/06/22 06:57:47;;;;;;;17.90;11.07;;;;;;;28.36;44.22;101220.41;5077428;28;20043;-74
2022/06/22 07:00:12;;;;;;;14.57;10.95;;;;;;;28.80;41.77;101210.13;5092506;28;20028;-73
2022/06/22 07:06:02;;;;;;;17.85;10.73;;;;;;;29.45;41.26;101215.28;5092925;28;20039;-74
2022/06/22 07:08:36;;;;;;;13.35;10.55;;;;;;;29.53;40.20;101208.13;5092323;28;20031;-73
2022/06/22 07:11:21;;;;;;;12.98;10.32;;;;;;;30.16;39.62;101203.50;5095305;28;20059;-74
2022/06/22 07:13:51;;;;;;;14.70;11.25;;;;;;;30.38;37.95;101213.38;5092310;28;20381;-74
2022/06/22 07:16:26;;;;;;;14.80;10.93;;;;;;;30.25;40.12;101204.22;5077166;28;20043;-73
2022/06/22 07:19:07;;;;;;;16.88;11.27;;;;;;;30.33;39.52;101211.59;5074008;28;20119;-73
2022/06/22 07:21:43;;;;;;;13.63;11.25;;;;;;;30.67;38.23;101216.03;5077484;28;20127;-74
2022/06/22 07:24:18;;;;;;;16.90;11.85;;;;;;;30.79;36.64;101216.03;5073934;28;20024;-73
2022/06/22 07:26:55;;;;;;;15.25;11.55;;;;;;;30.51;36.80;101195.69;5093460;28;20028;-72
2022/06/22 07:29:26;;;;;;;15.93;11.60;;;;;;;31.01;36.51;101200.22;5092040;28;20047;-74
2022/06/22 07:31:59;;;;;;;17.33;11.05;;;;;;;31.17;36.74;101192.06;5091808;28;20040;-74
2022/06/22 07:34:31;;;;;;;17.05;11.52;;;;;;;30.57;37.04;101185.22;5094955;28;20109;-73
2022/06/22 07:37:03;;;;;;;16.40;11.82;;;;;;;30.00;37.69;101185.88;5091163;28;20050;-73
2022/06/22 07:39:31;;;;;;;18.52;12.13;;;;;;;29.54;38.59;101173.91;5094892;28;20040;-73
2022/06/22 07:41:59;;;;;;;16.00;11.45;;;;;;;29.26;39.07;101177.13;5091753;28;20472;-73
2022/06/22 07:44:29;;;;;;;18.63;11.50;;;;;;;28.80;40.79;101180.66;5092756;28;20719;-73
2022/06/22 07:47:01;;;;;;;20.00;11.57;;;;;;;28.50;40.13;101185.25;5093067;28;20032;-73
2022/06/22 07:49:39;;;;;;;17.52;10.82;;;;;;;28.19;40.47;101179.94;5073670;28;20036;-74
2022/06/22 07:52:10;;;;;;;15.10;11.15;;;;;;;28.10;42.58;101198.38;5076658;28;20040;-73
2022/06/22 07:54:43;;;;;;;15.77;11.10;;;;;;;28.06;43.55;101187.22;5073373;28;20436;-73
2022/06/22 07:57:19;;;;;;;18.77;11.00;;;;;;;27.96;43.70;101194.97;5094654;28;20040;-73
2022/06/22 08:00:04;;;;;;;17.70;11.27;;;;;;;27.70;43.88;101194.94;5073605;28;20081;-73
2022/06/22 08:02:45;;;;;;;12.50;10.88;;;;;;;27.42;44.31;101197.09;5094482;28;20126;-73
2022/06/22 08:05:15;;;;;;;16.60;10.82;;;;;;;27.04;45.44;101197.59;5091483;28;20036;-73
2022/06/22 08:08:03;;;;;;;13.70;10.48;;;;;;;27.17;45.31;101193.94;5091457;28;20488;-73
2022/06/22 08:10:42;;;;;;;17.05;10.93;;;;;;;27.46;44.64;101193.38;5082199;28;20484;-74
2022/06/22 08:13:22;;;;;;;13.68;9.90;;;;;;;27.49;43.76;101196.66;5073328;28;20028;-73
2022/06/22 08:15:58;;;;;;;15.13;9.50;;;;;;;27.80;43.40;101200.16;5094547;28;20044;-73
2022/06/22 08:18:23;;;;;;;14.02;10.48;;;;;;;28.87;41.19;101192.00;5091388;28;20071;-73
2022/06/22 08:20:52;;;;;;;13.93;8.95;;;;;;;30.34;37.13;101206.88;5094328;28;20170;-74
2022/06/22 08:23:22;;;;;;;12.70;8.27;;;;;;;31.61;33.62;101207.72;5091327;28;20132;-74
2022/06/22 08:25:49;;;;;;;13.98;7.88;;;;;;;32.01;32.20;101206.97;5091585;28;20148;-73
2022/06/22 08:28:18;;;;;;;11.68;6.80;;;;;;;32.43;31.51;101203.84;5093780;28;20040;-73
2022/06/22 08:30:44;;;;;;;10.68;7.05;;;;;;;32.85;29.95;101216.09;5091253;28;20035;-74
2022/06/22 08:33:16;;;;;;;12.75;7.85;;;;;;;33.27;30.50;101204.50;5094170;28;20048;-73
2022/06/22 08:36:00;;;;;;;13.23;7.13;;;;;;;34.26;30.77;101221.78;5072732;28;20141;-73
2022/06/22 08:38:42;;;;;;;14.43;7.85;;;;;;;34.14;29.76;101198.56;5076220;28;20039;-73
2022/06/22 08:41:26;;;;;;;;;;;;;;;34.66;29.57;101205.53;5091678;28;20111;-74
2022/06/22 08:44:24;;;;;;;11.10;7.07;;;;;;;35.18;29.80;101215.19;5076011;28;19912;-73
2022/06/22 08:47:17;;;;;;;11.63;6.97;;;;;;;35.46;27.75;101217.66;5036128;28;20056;-74
2022/06/22 08:50:00;;;;;;;8.63;6.00;;;;;;;35.93;26.64;101221.94;5096862;28;20086;-73
2022/06/22 08:52:49;;;;;;;11.35;7.30;;;;;;;36.26;26.67;101221.97;5094710;28;20063;-73
2022/06/22 08:55:52;;;;;;;11.40;7.18;;;;;;;36.26;26.16;101210.81;5094368;28;20494;-74
2022/06/22 08:58:47;;;;;;;13.18;7.15;;;;;;;35.85;26.25;101212.66;5083284;28;20070;-73
2022/06/22 09:01:20;;;;;;;15.15;6.85;;;;;;;36.59;24.75;101207.22;5094489;28;20024;-73
2022/06/22 09:04:14;;;;;;;12.60;6.20;;;;;;;37.41;25.67;101205.19;5096380;28;20067;-73
2022/06/22 09:07:20;;;;;;;11.50;6.15;;;;;;;37.40;25.49;101200.78;5091069;28;20040;-73
2022/06/22 09:09:55;;;;;;;15.13;6.07;;;;;;;37.33;24.78;101200.75;5092358;28;20028;-74
2022/06/22 09:12:57;;;;;;;12.43;5.68;;;;;;;37.52;24.32;101208.84;5094075;28;20070;-75
2022/06/22 09:15:41;;;;;;;10.18;5.88;;;;;;;37.46;23.33;101204.00;5097193;28;20051;-74
2022/06/22 09:18:30;;;;;;;8.93;5.75;;;;;;;37.47;23.36;101211.19;5094183;28;20024;-74
2022/06/22 09:21:16;;;;;;;13.23;6.80;;;;;;;38.00;22.78;101216.31;5097243;28;20507;-74
2022/06/22 09:24:13;;;;;;;13.20;4.78;;;;;;;38.17;21.68;101217.56;5094102;28;20365;-74
2022/06/22 09:26:44;;;;;;;11.73;4.90;;;;;;;38.52;21.02;101217.69;5096974;28;20044;-74
2022/06/22 09:29:31;;;;;;;8.77;5.40;;;;;;;38.79;20.53;101218.19;5093806;28;20048;-73
2022/06/22 09:32:20;;;;;;;9.70;5.00;;;;;;;39.06;20.91;101220.59;5096811;28;20048;-73
2022/06/22 09:35:18;;;;;;;7.07;4.22;;;;;;;39.17;20.78;101221.41;5093756;28;20065;-74
2022/06/22 09:37:56;;;;;;;7.38;5.00;;;;;;;39.12;21.19;101228.19;5096784;28;20051;-74
2022/06/22 09:41:00;;;;;;;10.38;4.95;;;;;;;37.99;22.31;101223.09;5093592;28;20035;-74
2022/06/22 09:43:52;;;;;;;10.88;5.57;;;;;;;37.57;22.47;101221.63;5073935;28;20484;-73
2022/06/22 09:46:23;;;;;;;;;;;;;;;37.58;23.43;101219.63;5094084;28;20031;-73
2022/06/22 09:49:09;;;;;;;7.43;4.75;;;;;;;35.21;24.41;101224.78;5095264;28;20268;-74
2022/06/22 09:52:14;;;;;;;8.73;4.75;;;;;;;33.08;27.16;101223.81;5075751;28;20028;-74
2022/06/22 09:58:26;;;;;;;7.13;4.38;;;;;;;30.49;29.82;101212.59;5093794;28;20042;-73
2022/06/22 10:00:57;;;;;;;8.27;4.18;;;;;;;29.21;32.09;101210.38;5096359;28;20039;-73
2022/06/22 10:03:39;;;;;;;6.30;3.77;;;;;;;28.06;33.43;101200.97;5093503;28;20074;-73
2022/06/22 10:06:29;;;;;;;11.40;4.45;;;;;;;26.84;35.84;101204.41;5093332;28;20042;-73
2022/06/22 10:09:34;;;;;;;7.30;4.10;;;;;;;26.80;37.06;101203.44;5086741;28;20055;-74
2022/06/22 10:12:14;;;;;;;14.85;5.07;;;;;;;26.71;36.97;101199.03;5093111;28;20035;-74
2022/06/22 10:14:46;;;;;;;9.27;5.07;;;;;;;26.96;35.88;101198.34;5084948;28;20036;-72
2022/06/22 10:17:28;;;;;;;10.75;4.57;;;;;;;26.71;36.88;101199.03;5075074;28;20439;-74
2022/06/22 10:19:58;;;;;;;9.85;4.68;;;;;;;26.14;36.55;101196.81;5096071;28;20051;-73
2022/06/22 10:22:56;;;;;;;8.82;4.18;;;;;;;25.62;38.50;101195.47;5074933;28;20035;-73
2022/06/22 10:25:30;;;;;;;6.60;4.82;;;;;;;25.62;38.21;101184.50;5078045;28;20082;-74
2022/06/22 10:28:24;;;;;;;11.75;5.70;;;;;;;26.15;37.98;101183.91;5092862;28;20036;-73
2022/06/22 10:30:56;;;;;;;10.75;4.20;;;;;;;26.49;36.51;101180.63;5096040;28;20043;-74
2022/06/22 10:33:50;;;;;;;8.57;4.20;;;;;;;26.28;36.31;101179.47;5092818;28;20040;-73
2022/06/22 10:36:46;;;;;;;7.13;4.20;;;;;;;25.82;39.74;101169.59;5095647;28;20123;-73
2022/06/22 10:39:24;;;;;;;11.00;4.70;;;;;;;27.52;36.05;101169.34;5092739;28;20063;-73
2022/06/22 10:45:28;;;;;;;9.75;4.68;;;;;;;33.12;28.24;101172.03;5092764;28;20047;-73
2022/06/22 10:47:56;;;;;;;9.63;4.45;;;;;;;33.38;25.41;101171.50;5093855;28;20424;-74
2022/06/22 10:50:30;;;;;;;10.43;4.43;;;;;;;32.55;27.22;101173.31;5094120;28;20127;-73
2022/06/22 10:53:25;;;;;;;13.02;4.57;;;;;;;31.36;28.61;101170.19;5092463;28;20039;-74
2022/06/22 10:56:31;;;;;;;9.57;4.70;;;;;;;30.48;30.47;101168.75;5077759;28;20040;-73
2022/06/22 10:59:15;;;;;;;8.95;4.35;;;;;;;29.45;29.72;101171.19;5053538;28;20114;-73
2022/06/22 11:01:59;;;;;;;11.63;4.70;;;;;;;28.77;33.10;101172.25;5077626;28;20051;-73
2022/06/22 11:04:33;;;;;;;8.85;4.97;;;;;;;28.00;34.99;101171.19;5092460;28;20119;-73
2022/06/22 11:07:33;;;;;;;10.93;4.03;;;;;;;28.00;35.05;101169.25;5077763;28;20043;-73
2022/06/22 11:10:23;;;;;;;9.85;5.20;;;;;;;29.51;32.20;101166.31;5074256;28;20062;-73
2022/06/22 11:12:51;;;;;;;10.85;5.20;;;;;;;30.65;29.88;101176.91;5077562;28;20043;-73
2022/06/22 11:15:55;;;;;;;9.27;4.07;;;;;;;30.58;31.35;101175.81;5074235;28;20028;-73
2022/06/22 11:18:47;;;;;;;9.50;4.40;;;;;;;30.15;32.87;101174.28;5074561;28;20503;-73
2022/06/22 11:21:37;;;;;;;7.95;4.10;;;;;;;29.58;30.58;101161.88;5092181;28;20031;-73
2022/06/22 11:24:24;;;;;;;13.90;4.53;;;;;;;29.40;32.92;101171.34;5077260;28;20059;-73
2022/06/22 11:33:11;;;;;;;7.43;4.43;;;;;;;30.92;28.85;101164.38;5092009;28;20034;-74
2022/06/22 11:35:39;;;;;;;10.05;4.45;;;;;;;31.07;28.71;101166.47;5095005;28;20411;-74
2022/06/22 11:38:19;;;;;;;8.00;4.78;;;;;;;30.81;29.04;101172.31;5073721;28;20055;-74
2022/06/22 11:41:22;;;;;;;9.45;4.13;;;;;;;30.97;28.21;101168.91;5092237;28;20039;-73
2022/06/22 11:46:53;;;;;;;7.72;3.60;;;;;;;31.26;26.74;101178.97;5093446;28;19965;-73
2022/06/22 11:49:34;;;;;;;7.38;4.05;;;;;;;32.01;26.21;101174.56;5092734;28;20028;-74
2022/06/22 11:52:30;;;;;;;10.95;4.18;;;;;;;31.58;28.42;101185.50;5091627;28;20070;-73
2022/06/22 11:55:20;;;;;;;5.22;3.60;;;;;;;30.58;27.73;101176.59;5094716;28;20048;-74
2022/06/22 11:57:58;;;;;;;6.60;3.50;;;;;;;29.74;27.26;101175.84;5073460;28;20119;-73
2022/06/22 12:00:35;;;;;;;5.55;3.22;;;;;;;29.37;28.29;101166.50;5076965;28;20449;-73
2022/06/22 12:03:38;;;;;;;10.95;3.85;;;;;;;28.95;30.88;101165.59;5073462;28;20697;-73
2022/06/22 12:06:35;;;;;;;;;;;;;;;28.63;31.47;101166.97;5095012;28;20039;-74
2022/06/22 12:09:30;;;;;;;7.82;3.85;;;;;;;27.79;33.63;101161.97;5040172;28;19915;-73
2022/06/22 12:12:19;;;;;;;6.82;4.07;;;;;;;27.82;31.79;101161.34;5091446;28;20460;-74
2022/06/22 12:15:05;;;;;;;8.60;3.42;;;;;;;28.20;33.03;101164.25;5091415;28;20060;-73
2022/06/22 12:17:42;;;;;;;6.13;3.00;;;;;;;28.84;30.89;101147.78;5094547;28;20441;-73
2022/06/22 12:20:44;;;;;;;12.43;4.07;;;;;;;28.64;30.43;101136.34;5091354;28;20051;-73
2022/06/22 12:23:36;;;;;;;6.15;3.40;;;;;;;27.99;31.97;101133.84;5097250;28;20079;-73
2022/06/22 12:26:32;;;;;;;8.20;4.00;;;;;;;28.42;31.03;101133.81;5094921;28;20111;-73
2022/06/22 12:29:33;;;;;;;7.75;3.40;;;;;;;28.94;30.10;101130.94;5079947;28;20044;-73
2022/06/22 12:35:42;;;;;;;8.05;3.55;;;;;;;28.49;32.84;101111.31;5094835;28;20081;-72
2022/06/22 12:45:27;;;;;;;6.10;3.00;;;;;;;29.16;30.71;101108.59;5094929;28;20090;-75
2022/06/22 12:51:26;;;;;;;5.63;3.10;;;;;;;29.41;28.77;101098.56;5094557;28;20039;-73
2022/06/22 12:57:20;;;;;;;8.85;2.90;;;;;;;27.82;31.23;101087.94;5094455;28;20089;-73
2022/06/22 12:59:55;;;;;;;5.97;3.50;;;;;;;27.44;32.64;101085.75;5097496;28;20111;-73
2022/06/22 13:09:38;;;;;;;10.38;3.55;;;;;;;27.11;31.62;101074.41;5094514;28;20047;-74
2022/06/22 13:12:17;;;;;;;5.68;3.47;;;;;;;27.25;31.41;101078.97;5079242;28;20037;-72
2022/06/22 13:14:50;;;;;;;9.55;3.78;;;;;;;26.95;31.17;101078.69;5094276;28;20032;-72
2022/06/22 13:17:30;;;;;;;10.93;3.15;;;;;;;26.66;33.64;101076.50;5097164;28;20036;-73
2022/06/22 13:20:11;;;;;;;6.93;3.65;;;;;;;26.50;33.14;101078.03;5094095;28;20495;-73
2022/06/22 13:22:53;;;;;;;6.78;2.90;;;;;;;26.75;30.42;101074.59;5095768;28;20475;-72
2022/06/22 13:25:40;;;;;;;9.18;3.60;;;;;;;26.84;30.63;101069.94;5094206;28;20024;-74
2022/06/22 13:28:18;;;;;;;5.63;3.50;;;;;;;27.25;31.58;101060.56;5075778;28;20035;-73
2022/06/22 13:34:11;;;;;;;4.93;3.22;;;;;;;27.98;30.99;101050.53;5092599;28;20279;-75
2022/06/22 13:40:04;;;;;;;5.60;3.13;;;;;;;26.95;32.81;101043.03;5094118;28;20043;-74
2022/06/22 13:46:27;;;;;;;6.35;3.03;;;;;;;26.40;31.73;101039.91;5093983;28;20038;-73
2022/06/22 13:52:34;;;;;;;10.75;3.70;;;;;;;26.19;31.92;101045.09;5093621;28;20502;-73
2022/06/22 13:55:18;;;;;;;7.80;2.75;;;;;;;26.09;34.49;101048.09;5075415;28;20050;-73
2022/06/22 13:57:55;;;;;;;11.45;3.00;;;;;;;26.05;32.91;101044.38;5093593;28;20029;-73
2022/06/22 14:04:00;;;;;;;9.38;3.50;;;;;;;25.99;34.63;101043.66;5093599;28;20127;-73
2022/06/22 14:06:38;;;;;;;5.78;2.95;;;;;;;26.14;31.87;101040.53;5096565;28;20461;-74
2022/06/22 14:09:22;;;;;;;7.30;3.15;;;;;;;26.26;33.63;101034.47;5093727;28;20390;-74
2022/06/22 14:12:08;;;;;;;10.43;3.15;;;;;;;26.27;35.62;101041.56;5096714;28;20048;-73
2022/06/22 14:18:02;;;;;;;4.25;2.58;;;;;;;26.01;32.19;101033.19;5093550;28;20154;-74
2022/06/22 14:23:50;;;;;;;7.00;3.25;;;;;;;26.12;33.46;101020.06;5093247;28;20039;-74
2022/06/22 14:30:01;;;;;;;6.70;3.20;;;;;;;26.44;33.77;101024.44;5096338;28;20215;-74
2022/06/22 14:36:02;;;;;;;13.25;3.60;;;;;;;26.49;33.26;101016.88;5093105;28;20135;-75
2022/06/22 14:42:03;;;;;;;6.43;2.92;;;;;;;26.29;32.89;101024.81;5093101;28;20039;-75
2022/06/22 14:47:53;;;;;;;6.95;3.35;;;;;;;26.20;32.44;101030.25;5092825;28;20046;-75
2022/06/22 14:53:53;;;;;;;13.52;3.42;;;;;;;26.29;32.41;101020.13;5092750;28;20088;-73
2022/06/22 14:59:49;;;;;;;6.65;3.20;;;;;;;26.18;32.46;101027.00;5092924;28;20078;-74
2022/06/22 15:05:56;;;;;;;6.25;3.13;;;;;;;26.09;34.09;101028.91;5093042;28;20082;-72
2022/06/22 15:19:01;;;;;;;6.18;2.88;;;;;;;26.30;32.52;101020.94;5092418;28;20406;-72
2022/06/22 15:21:31;;;;;;;;;;;;;;;26.13;34.34;101014.25;4990797;28;20490;-74
2022/06/22 15:27:48;;;;;;;5.47;3.15;;;;;;;26.11;32.52;101012.97;4990384;28;20113;-74
2022/06/22 15:36:59;;;;;;;7.00;3.05;;;;;;;26.49;31.72;101003.16;4990789;28;20104;-73
2022/06/22 15:42:50;;;;;;;4.63;3.10;;;;;;;26.59;33.89;100993.00;5092146;28;20047;-73
2022/06/22 15:48:51;;;;;;;5.60;3.22;;;;;;;26.83;33.03;100983.22;5092031;28;20061;-72
2022/06/22 15:51:29;;;;;;;3.35;2.50;;;;;;;26.83;31.26;100988.72;5091783;28;20032;-72
2022/06/22 15:57:16;;;;;;;11.07;3.20;;;;;;;26.68;32.60;100980.16;5091924;28;20050;-73
2022/06/22 16:03:38;;;;;;;4.45;2.50;;;;;;;27.05;33.44;100978.78;5092067;28;20281;-73
2022/06/22 16:09:40;;;;;;;12.73;3.42;;;;;;;26.83;31.44;100975.00;5092595;28;20526;-73
2022/06/22 16:15:40;;;;;;;7.00;3.00;;;;;;;26.82;33.61;100972.56;5092285;28;20047;-73
2022/06/22 16:21:43;;;;;;;6.10;3.13;;;;;;;26.74;30.65;100965.16;5092193;28;20051;-73
2022/06/22 16:27:47;;;;;;;7.50;3.10;;;;;;;26.51;31.86;100967.19;5091970;28;20458;-73